createdAt,value
2023-07-09T00:02:13.736Z,17.00
2023-07-09T00:04:41.957Z,16.90
2023-07-09T00:07:27.998Z,16.90
2023-07-09T00:09:56.688Z,17.00
2023-07-09T00:12:25.148Z,16.90
2023-07-09T00:14:53.323Z,17.00
2023-07-09T00:17:38.616Z,16.90
2023-07-09T00:20:13.419Z,17.00
2023-07-09T00:22:42.573Z,17.00
2023-07-09T00:25:18.098Z,16.90
2023-07-09T00:27:49.455Z,16.90
2023-07-09T00:30:20.824Z,16.80
2023-07-09T00:32:50.108Z,16.80
2023-07-09T00:35:17.641Z,16.80
2023-07-09T00:37:46.798Z,16.70
2023-07-09T00:40:23.438Z,16.70
2023-07-09T00:42:55.742Z,16.70
2023-07-09T00:45:27.010Z,16.60
2023-07-09T00:48:00.329Z,16.60
2023-07-09T00:50:46.793Z,16.60
2023-07-09T00:53:30.639Z,16.60
2023-07-09T00:56:06.031Z,16.60
2023-07-09T00:58:36.948Z,16.60
2023-07-09T01:01:11.898Z,16.70
2023-07-09T01:03:46.298Z,16.60
2023-07-09T01:06:16.061Z,16.50
2023-07-09T01:08:43.878Z,16.40
2023-07-09T01:11:23.036Z,16.40
2023-07-09T01:14:00.556Z,16.40
2023-07-09T01:16:34.885Z,16.40
2023-07-09T01:19:03.132Z,16.40
2023-07-09T01:21:30.913Z,16.40
2023-07-09T01:23:59.168Z,16.50
2023-07-09T01:26:28.543Z,16.40
2023-07-09T01:28:56.748Z,16.40
2023-07-09T01:31:24.728Z,16.40
2023-07-09T01:33:52.657Z,16.40
2023-07-09T01:36:27.385Z,16.30
2023-07-09T01:38:54.990Z,16.30
2023-07-09T01:41:23.304Z,16.30
2023-07-09T01:43:52.727Z,16.30
2023-07-09T01:46:20.450Z,16.20
2023-07-09T01:48:50.923Z,16.30
2023-07-09T01:51:19.253Z,16.20
2023-07-09T01:53:46.921Z,16.10
2023-07-09T01:56:14.601Z,16.10
2023-07-09T01:58:43.232Z,15.90
2023-07-09T02:01:12.885Z,15.90
2023-07-09T02:03:40.964Z,15.90
2023-07-09T02:06:12.250Z,15.90
2023-07-09T02:08:39.992Z,15.90
2023-07-09T02:11:07.675Z,15.90
2023-07-09T02:13:35.278Z,16.00
2023-07-09T02:16:03.504Z,16.00
2023-07-09T02:18:31.255Z,16.00
2023-07-09T02:21:01.948Z,15.90
2023-07-09T02:23:30.347Z,15.90
2023-07-09T02:26:00.005Z,16.10
2023-07-09T02:28:27.636Z,16.00
2023-07-09T02:30:55.228Z,15.90
2023-07-09T02:33:24.806Z,15.90
2023-07-09T02:35:52.361Z,16.20
2023-07-09T02:38:20.012Z,16.10
2023-07-09T02:40:48.197Z,16.00
2023-07-09T02:43:16.677Z,16.20
2023-07-09T02:45:44.151Z,16.10
2023-07-09T02:48:12.522Z,16.00
2023-07-09T02:50:41.443Z,16.20
2023-07-09T02:53:08.995Z,16.20
2023-07-09T02:55:36.493Z,16.30
2023-07-09T02:58:04.057Z,16.10
2023-07-09T03:00:32.141Z,16.20
2023-07-09T03:02:59.961Z,16.20
2023-07-09T03:05:27.547Z,16.30
2023-07-09T03:07:55.108Z,16.20
2023-07-09T03:10:22.674Z,16.30
2023-07-09T03:12:50.269Z,16.20
2023-07-09T03:15:17.907Z,16.20
2023-07-09T03:17:45.454Z,16.20
2023-07-09T03:20:14.458Z,16.10
2023-07-09T03:22:42.059Z,16.10
2023-07-09T03:25:09.736Z,16.00
2023-07-09T03:27:37.374Z,16.00
2023-07-09T03:30:05.412Z,16.00
2023-07-09T03:32:33.111Z,16.10
2023-07-09T03:35:02.244Z,16.00
2023-07-09T03:37:30.031Z,16.10
2023-07-09T03:39:57.535Z,15.90
2023-07-09T03:42:25.273Z,16.00
2023-07-09T03:44:53.384Z,15.80
2023-07-09T03:47:21.061Z,15.80
2023-07-09T03:49:48.788Z,15.70
2023-07-09T03:52:16.416Z,15.70
2023-07-09T03:54:43.893Z,15.60
2023-07-09T03:57:11.431Z,15.70
2023-07-09T03:59:40.938Z,15.60
2023-07-09T04:02:08.565Z,15.70
2023-07-09T04:04:36.050Z,15.60
2023-07-09T04:07:03.851Z,15.70
2023-07-09T04:09:32.528Z,15.80
2023-07-09T04:12:02.477Z,15.80
2023-07-09T04:14:30.520Z,15.60
2023-07-09T04:16:58.804Z,15.70
2023-07-09T04:19:26.473Z,15.70
2023-07-09T04:21:54.104Z,15.80
2023-07-09T04:24:21.887Z,15.60
2023-07-09T04:26:49.436Z,15.60
2023-07-09T04:29:16.955Z,15.80
2023-07-09T04:31:44.498Z,15.60
2023-07-09T04:34:12.020Z,15.80
2023-07-09T04:36:39.524Z,15.80
2023-07-09T04:39:07.181Z,15.60
2023-07-09T04:41:34.789Z,15.60
2023-07-09T04:44:02.363Z,15.60
2023-07-09T04:46:29.975Z,15.80
2023-07-09T04:48:57.501Z,15.60
2023-07-09T04:51:24.979Z,15.70
2023-07-09T04:53:52.927Z,15.80
2023-07-09T04:56:20.726Z,15.80
2023-07-09T04:58:50.132Z,15.70
2023-07-09T05:01:18.140Z,15.80
2023-07-09T05:03:45.701Z,15.70
2023-07-09T05:06:13.455Z,15.80
2023-07-09T05:08:44.054Z,15.90
2023-07-09T05:11:11.872Z,15.80
2023-07-09T05:13:39.505Z,15.90
2023-07-09T05:16:07.324Z,15.80
2023-07-09T05:18:35.003Z,15.80
2023-07-09T05:21:02.523Z,16.00
2023-07-09T05:23:30.045Z,15.90
2023-07-09T05:25:59.113Z,16.00
2023-07-09T05:28:26.927Z,16.00
2023-07-09T05:30:54.648Z,16.00
2023-07-09T05:33:23.162Z,16.10
2023-07-09T05:35:50.728Z,16.00
2023-07-09T05:38:18.546Z,16.00
2023-07-09T05:40:46.120Z,15.90
2023-07-09T05:43:13.666Z,16.00
2023-07-09T05:45:41.391Z,15.90
2023-07-09T05:48:08.905Z,16.10
2023-07-09T05:50:37.048Z,16.10
2023-07-09T05:53:04.528Z,16.00
2023-07-09T05:55:33.310Z,16.20
2023-07-09T05:58:00.881Z,16.00
2023-07-09T06:00:30.624Z,16.10
2023-07-09T06:02:58.814Z,16.10
2023-07-09T06:05:26.439Z,16.10
2023-07-09T06:07:54.927Z,16.00
2023-07-09T06:10:22.920Z,16.10
2023-07-09T06:12:50.490Z,16.20
2023-07-09T06:15:18.003Z,16.10
2023-07-09T06:17:45.602Z,16.10
2023-07-09T06:20:13.252Z,16.20
2023-07-09T06:22:40.796Z,16.20
2023-07-09T06:25:08.759Z,16.20
2023-07-09T06:27:36.781Z,16.30
2023-07-09T06:30:04.625Z,16.40
2023-07-09T06:32:32.327Z,16.20
2023-07-09T06:34:59.878Z,16.10
2023-07-09T06:37:27.428Z,16.20
2023-07-09T06:39:54.916Z,16.20
2023-07-09T06:42:22.547Z,16.20
2023-07-09T06:45:01.514Z,16.30
2023-07-09T06:47:29.168Z,16.30
2023-07-09T06:49:56.728Z,16.40
2023-07-09T06:52:24.590Z,16.40
2023-07-09T06:54:52.131Z,16.40
2023-07-09T06:57:19.766Z,16.40
2023-07-09T06:59:47.262Z,16.10
2023-07-09T07:02:14.944Z,16.10
2023-07-09T07:04:42.848Z,16.30
2023-07-09T07:07:10.826Z,16.20
2023-07-09T07:09:38.379Z,16.20
2023-07-09T07:12:07.577Z,16.30
2023-07-09T07:14:35.122Z,16.30
2023-07-09T07:17:02.633Z,16.40
2023-07-09T07:19:30.248Z,16.30
2023-07-09T07:21:57.733Z,16.30
2023-07-09T07:24:25.327Z,16.30
2023-07-09T07:26:52.869Z,16.30
2023-07-09T07:29:20.406Z,16.50
2023-07-09T07:31:47.960Z,16.40
2023-07-09T07:34:15.611Z,16.30
2023-07-09T07:36:43.967Z,16.50
2023-07-09T07:39:11.856Z,16.50
2023-07-09T07:41:39.533Z,16.30
2023-07-09T07:44:07.136Z,16.40
2023-07-09T07:46:35.702Z,16.60
2023-07-09T07:49:05.464Z,16.50
2023-07-09T07:51:33.024Z,16.60
2023-07-09T07:54:00.627Z,16.60
2023-07-09T07:56:28.148Z,16.60
2023-07-09T07:58:55.674Z,16.60
2023-07-09T08:01:23.263Z,16.60
2023-07-09T08:03:50.819Z,16.50
2023-07-09T08:06:18.351Z,16.60
2023-07-09T08:08:45.902Z,16.70
2023-07-09T08:11:15.913Z,16.70
2023-07-09T08:13:43.565Z,16.70
2023-07-09T08:16:13.057Z,16.80
2023-07-09T08:18:40.793Z,16.70
2023-07-09T08:21:08.464Z,16.80
2023-07-09T08:23:36.451Z,16.90
2023-07-09T08:26:05.324Z,16.90
2023-07-09T08:28:33.755Z,16.70
2023-07-09T08:31:01.392Z,16.70
2023-07-09T08:33:29.132Z,16.70
2023-07-09T08:35:56.616Z,16.80
2023-07-09T08:38:25.779Z,16.80
2023-07-09T08:41:02.319Z,16.80
2023-07-09T08:43:44.222Z,17.00
2023-07-09T08:46:27.822Z,16.90
2023-07-09T08:48:58.164Z,16.80
2023-07-09T08:51:40.147Z,16.70
2023-07-09T08:54:18.914Z,16.70
2023-07-09T08:56:47.036Z,16.60
2023-07-09T08:59:18.513Z,16.70
2023-07-09T09:02:00.818Z,16.60
2023-07-09T09:04:37.219Z,16.60
2023-07-09T09:07:24.984Z,16.50
2023-07-09T09:10:02.600Z,16.60
2023-07-09T09:12:40.104Z,16.60
2023-07-09T09:15:20.116Z,16.60
2023-07-09T09:18:09.155Z,16.70
2023-07-09T09:20:36.760Z,16.70
2023-07-09T09:23:17.467Z,16.70
2023-07-09T09:26:12.275Z,16.90
2023-07-09T09:28:41.532Z,16.90
2023-07-09T09:31:12.365Z,16.80
2023-07-09T09:33:45.412Z,16.80
2023-07-09T09:36:19.888Z,16.80
2023-07-09T09:38:47.592Z,16.80
2023-07-09T09:41:17.485Z,17.00
2023-07-09T09:43:47.221Z,17.10
2023-07-09T09:46:23.739Z,17.10
2023-07-09T09:48:55.622Z,17.30
2023-07-09T09:51:25.016Z,17.30
2023-07-09T09:53:58.319Z,17.60
2023-07-09T09:56:36.871Z,17.90
2023-07-09T09:59:05.772Z,18.20
2023-07-09T10:01:39.963Z,18.30
2023-07-09T10:04:11.859Z,18.30
2023-07-09T10:06:46.667Z,18.30
2023-07-09T10:09:35.757Z,18.50
2023-07-09T10:12:33.902Z,18.60
2023-07-09T10:15:12.182Z,18.60
2023-07-09T10:17:47.583Z,18.80
2023-07-09T10:20:36.449Z,18.50
2023-07-09T10:23:25.366Z,18.70
2023-07-09T10:26:15.420Z,18.50
2023-07-09T10:28:44.551Z,18.60
2023-07-09T10:31:20.644Z,18.60
2023-07-09T10:33:57.000Z,18.50
2023-07-09T10:36:27.608Z,18.30
2023-07-09T10:39:10.555Z,18.40
2023-07-09T10:41:39.607Z,18.40
2023-07-09T10:44:13.850Z,18.40
2023-07-09T10:46:46.907Z,18.30
2023-07-09T10:49:17.032Z,18.20
2023-07-09T10:52:22.693Z,18.40
2023-07-09T10:55:19.285Z,18.80
2023-07-09T10:57:55.537Z,18.70
2023-07-09T11:00:31.010Z,18.80
2023-07-09T11:03:19.825Z,19.10
2023-07-09T11:05:51.565Z,19.70
2023-07-09T11:08:38.143Z,19.80
2023-07-09T11:11:11.703Z,20.30
2023-07-09T11:13:52.665Z,20.50
2023-07-09T11:16:40.284Z,20.30
2023-07-09T11:19:14.106Z,20.30
2023-07-09T11:22:03.721Z,20.50
2023-07-09T11:24:35.163Z,20.20
2023-07-09T11:27:03.418Z,20.30
2023-07-09T11:29:31.050Z,20.20
2023-07-09T11:32:09.979Z,20.00
2023-07-09T11:34:48.015Z,19.50
2023-07-09T11:37:17.441Z,19.00
2023-07-09T11:39:48.569Z,19.00
2023-07-09T11:42:34.152Z,19.10
2023-07-09T11:45:11.945Z,18.90
2023-07-09T11:47:51.072Z,18.90
2023-07-09T11:50:30.724Z,18.70
2023-07-09T11:53:03.589Z,18.80
2023-07-09T11:55:42.707Z,19.00
2023-07-09T11:58:13.104Z,19.10
2023-07-09T12:00:43.502Z,19.10
2023-07-09T12:03:34.200Z,19.20
2023-07-09T12:06:08.240Z,19.30
2023-07-09T12:08:39.697Z,19.30
2023-07-09T12:11:17.869Z,19.70
2023-07-09T12:13:45.855Z,20.00
2023-07-09T12:16:22.938Z,20.10
2023-07-09T12:18:51.237Z,20.30
2023-07-09T12:21:20.095Z,20.50
2023-07-09T12:23:47.811Z,20.40
2023-07-09T12:26:17.774Z,20.50
2023-07-09T12:29:10.426Z,20.20
2023-07-09T12:31:38.045Z,20.20
2023-07-09T12:34:05.511Z,20.20
2023-07-09T12:36:36.602Z,19.70
2023-07-09T12:39:05.561Z,19.40
2023-07-09T12:41:37.899Z,19.40
2023-07-09T12:44:06.234Z,19.80
2023-07-09T12:46:34.173Z,20.30
2023-07-09T12:49:02.449Z,20.80
2023-07-09T12:51:31.942Z,21.00
2023-07-09T12:54:11.456Z,21.20
2023-07-09T12:56:39.021Z,21.50
2023-07-09T12:59:28.863Z,21.40
2023-07-09T13:02:17.255Z,21.30
2023-07-09T13:04:45.564Z,21.50
2023-07-09T13:07:25.406Z,21.50
2023-07-09T13:09:54.989Z,21.40
2023-07-09T13:12:32.320Z,21.60
2023-07-09T13:15:01.728Z,21.50
2023-07-09T13:17:32.866Z,21.30
2023-07-09T13:20:01.678Z,21.20
2023-07-09T13:22:30.347Z,21.10
2023-07-09T13:24:58.378Z,21.10
2023-07-09T13:27:27.237Z,20.90
2023-07-09T13:29:56.119Z,20.80
2023-07-09T13:32:24.927Z,20.80
2023-07-09T13:34:53.663Z,20.70
2023-07-09T13:37:21.999Z,20.70
2023-07-09T13:39:50.268Z,20.60
2023-07-09T13:42:19.686Z,20.40
2023-07-09T13:44:49.481Z,20.30
2023-07-09T13:47:20.682Z,20.30
2023-07-09T13:49:49.922Z,20.10
2023-07-09T13:52:27.563Z,20.10
2023-07-09T13:54:57.643Z,20.00
2023-07-09T13:57:26.340Z,19.90
2023-07-09T13:59:54.844Z,19.90
2023-07-09T14:02:27.340Z,19.80
2023-07-09T14:04:56.803Z,19.80
2023-07-09T14:07:36.450Z,19.70
2023-07-09T14:10:08.433Z,19.80
2023-07-09T14:12:45.744Z,19.80
2023-07-09T14:15:27.278Z,19.80
2023-07-09T14:18:00.314Z,19.70
2023-07-09T14:20:29.258Z,19.70
2023-07-09T14:22:57.694Z,19.80
2023-07-09T14:25:29.467Z,19.70
2023-07-09T14:28:00.833Z,19.70
2023-07-09T14:30:29.868Z,19.70
2023-07-09T14:33:00.031Z,19.80
2023-07-09T14:35:29.027Z,19.80
2023-07-09T14:37:56.789Z,20.00
2023-07-09T14:40:24.793Z,19.90
2023-07-09T14:42:52.511Z,20.00
2023-07-09T14:45:25.823Z,20.10
2023-07-09T14:47:54.699Z,20.20
2023-07-09T14:50:24.736Z,20.30
2023-07-09T14:52:52.392Z,20.40
2023-07-09T14:55:22.109Z,20.30
2023-07-09T14:57:49.877Z,20.30
2023-07-09T15:00:22.938Z,20.40
2023-07-09T15:02:53.234Z,20.30
2023-07-09T15:05:23.758Z,20.40
2023-07-09T15:07:52.340Z,20.60
2023-07-09T15:10:25.815Z,20.70
2023-07-09T15:12:54.266Z,20.70
2023-07-09T15:15:30.533Z,20.90
2023-07-09T15:18:01.858Z,21.20
2023-07-09T15:20:31.332Z,21.40
2023-07-09T15:23:00.188Z,21.40
2023-07-09T15:25:30.314Z,21.30
2023-07-09T15:27:58.782Z,21.40
2023-07-09T15:30:29.384Z,21.40
2023-07-09T15:33:01.201Z,21.60
2023-07-09T15:35:36.554Z,21.50
2023-07-09T15:38:19.521Z,21.60
2023-07-09T15:40:49.351Z,21.60
2023-07-09T15:43:17.770Z,21.40
2023-07-09T15:45:48.046Z,21.30
2023-07-09T15:48:27.175Z,21.40
2023-07-09T15:50:55.096Z,21.40
2023-07-09T15:53:23.152Z,21.40
2023-07-09T15:55:55.814Z,21.40
2023-07-09T15:58:30.589Z,21.50
2023-07-09T16:00:58.274Z,21.50
2023-07-09T16:03:25.878Z,21.40
2023-07-09T16:05:53.821Z,21.50
2023-07-09T16:08:21.545Z,21.50
2023-07-09T16:10:49.336Z,21.30
2023-07-09T16:13:28.498Z,21.30
2023-07-09T16:15:56.174Z,21.10
2023-07-09T16:18:23.659Z,21.00
2023-07-09T16:20:51.407Z,20.90
2023-07-09T16:23:21.387Z,20.80
2023-07-09T16:25:50.801Z,20.80
2023-07-09T16:28:21.082Z,20.70
2023-07-09T16:30:52.009Z,20.60
2023-07-09T16:33:19.858Z,20.50
2023-07-09T16:35:48.077Z,20.30
2023-07-09T16:38:15.786Z,20.30
2023-07-09T16:40:43.374Z,20.30
2023-07-09T16:43:19.472Z,20.20
2023-07-09T16:45:47.654Z,20.20
2023-07-09T16:48:19.633Z,20.30
2023-07-09T16:50:47.856Z,20.20
2023-07-09T16:53:18.320Z,20.10
2023-07-09T16:55:46.523Z,20.00
2023-07-09T16:58:24.598Z,20.00
2023-07-09T17:00:52.274Z,19.80
2023-07-09T17:03:19.977Z,19.80
2023-07-09T17:05:47.679Z,19.70
2023-07-09T17:08:15.648Z,19.60
2023-07-09T17:10:44.572Z,19.50
2023-07-09T17:13:22.603Z,19.30
2023-07-09T17:15:50.552Z,19.40
2023-07-09T17:18:27.383Z,19.40
2023-07-09T17:20:57.243Z,19.50
2023-07-09T17:23:31.756Z,19.50
2023-07-09T17:26:02.681Z,19.50
2023-07-09T17:28:32.461Z,19.50
2023-07-09T17:31:00.404Z,19.50
2023-07-09T17:33:28.027Z,19.50
2023-07-09T17:35:57.363Z,19.60
2023-07-09T17:38:31.930Z,19.70
2023-07-09T17:40:59.509Z,19.80
2023-07-09T17:43:29.309Z,19.90
2023-07-09T17:45:56.956Z,20.10
2023-07-09T17:48:28.618Z,20.20
2023-07-09T17:50:56.899Z,20.10
2023-07-09T17:53:26.957Z,20.10
2023-07-09T17:55:55.174Z,20.20
2023-07-09T17:58:28.098Z,20.20
2023-07-09T18:01:05.118Z,20.30
2023-07-09T18:03:33.460Z,20.30
2023-07-09T18:06:01.151Z,20.30
2023-07-09T18:08:28.824Z,20.30
2023-07-09T18:10:57.987Z,20.30
2023-07-09T18:13:29.313Z,20.40
2023-07-09T18:15:59.791Z,20.30
2023-07-09T18:18:27.532Z,20.20
2023-07-09T18:20:55.286Z,20.10
2023-07-09T18:23:25.496Z,20.00
2023-07-09T18:25:54.842Z,19.90
2023-07-09T18:28:33.621Z,19.70
2023-07-09T18:33:32.382Z,19.80
2023-07-09T18:35:59.970Z,19.70
2023-07-09T18:38:27.591Z,19.70
2023-07-09T18:40:55.136Z,19.60
2023-07-09T18:43:32.354Z,19.50
2023-07-09T18:46:01.346Z,19.40
2023-07-09T18:48:30.472Z,19.40
2023-07-09T18:50:59.449Z,19.30
2023-07-09T18:53:28.919Z,19.40
2023-07-09T18:55:58.456Z,19.40
2023-07-09T18:58:28.751Z,19.40
2023-07-09T19:00:58.253Z,19.40
2023-07-09T19:03:37.504Z,19.30
2023-07-09T19:06:05.793Z,19.30
2023-07-09T19:08:36.076Z,19.20
2023-07-09T19:11:05.179Z,19.10
2023-07-09T19:13:33.942Z,19.10
2023-07-09T19:16:03.526Z,19.00
2023-07-09T19:18:36.301Z,18.90
2023-07-09T19:21:05.446Z,18.80
2023-07-09T19:23:33.367Z,18.70
2023-07-09T19:26:01.275Z,18.60
2023-07-09T19:28:29.171Z,18.60
2023-07-09T19:30:58.543Z,18.60
2023-07-09T19:33:38.200Z,18.50
2023-07-09T19:36:24.646Z,18.50
2023-07-09T19:38:53.179Z,18.50
2023-07-09T19:41:23.104Z,18.50
2023-07-09T19:43:50.790Z,18.40
2023-07-09T19:46:24.869Z,18.30
2023-07-09T19:48:52.664Z,18.30
2023-07-09T19:51:20.252Z,18.20
2023-07-09T19:53:47.888Z,18.20
2023-07-09T19:56:15.445Z,18.10
2023-07-09T19:58:43.038Z,18.00
2023-07-09T20:01:14.699Z,18.00
2023-07-09T20:03:42.767Z,17.90
2023-07-09T20:06:16.755Z,18.00
2023-07-09T20:08:44.338Z,17.90
2023-07-09T20:11:16.450Z,17.80
2023-07-09T20:13:45.502Z,17.70
2023-07-09T20:16:30.143Z,17.70
2023-07-09T20:18:59.994Z,17.70
2023-07-09T20:21:28.478Z,17.60
2023-07-09T20:23:56.944Z,17.60
2023-07-09T20:26:24.477Z,17.50
2023-07-09T20:28:53.212Z,17.50
2023-07-09T20:31:25.811Z,17.50
2023-07-09T20:34:14.045Z,17.50
2023-07-09T20:36:41.745Z,17.40
2023-07-09T20:39:15.618Z,17.40
2023-07-09T20:41:47.751Z,17.40
2023-07-09T20:44:17.967Z,17.40
2023-07-09T20:46:45.625Z,17.30
2023-07-09T20:49:28.567Z,17.30
2023-07-09T20:51:56.453Z,17.30
2023-07-09T20:54:24.125Z,17.30
2023-07-09T20:56:55.320Z,17.30
2023-07-09T20:59:23.339Z,17.30
2023-07-09T21:01:50.879Z,17.30
2023-07-09T21:04:21.452Z,17.30
2023-07-09T21:06:51.144Z,17.30
2023-07-09T21:09:20.490Z,17.40
2023-07-09T21:11:52.037Z,17.40
2023-07-09T21:14:19.629Z,17.50
2023-07-09T21:16:49.393Z,17.50
2023-07-09T21:19:37.306Z,17.60
2023-07-09T21:22:12.222Z,17.60
2023-07-09T21:24:40.893Z,17.60
2023-07-09T21:27:08.986Z,17.60
2023-07-09T21:29:36.664Z,17.60
2023-07-09T21:32:07.336Z,17.50
2023-07-09T21:34:35.848Z,17.50
2023-07-09T21:37:17.415Z,17.50
2023-07-09T21:39:45.339Z,17.50
2023-07-09T21:42:13.223Z,17.50
2023-07-09T21:44:41.270Z,17.50
2023-07-09T21:47:14.831Z,17.50
2023-07-09T21:49:43.780Z,17.50
2023-07-09T21:52:29.490Z,17.50
2023-07-09T21:57:27.517Z,17.50
2023-07-09T21:59:55.004Z,17.50
2023-07-09T22:02:27.625Z,17.60
2023-07-09T22:04:55.670Z,17.60
2023-07-09T22:07:25.036Z,17.60
2023-07-09T22:09:56.682Z,17.60
2023-07-09T22:12:26.368Z,17.60
2023-07-09T22:14:56.371Z,17.60
2023-07-09T22:17:28.809Z,17.60
2023-07-09T22:19:59.487Z,17.50
2023-07-09T22:22:29.342Z,17.50
2023-07-09T22:24:57.494Z,17.50
2023-07-09T22:27:25.066Z,17.40
2023-07-09T22:29:53.158Z,17.40
2023-07-09T22:32:23.744Z,17.40
2023-07-09T22:34:53.330Z,17.40
2023-07-09T22:37:21.201Z,17.40
2023-07-09T22:39:48.947Z,17.40
2023-07-09T22:42:16.594Z,17.40
2023-07-09T22:44:44.506Z,17.40
2023-07-09T22:47:20.798Z,17.30
2023-07-09T22:49:48.565Z,17.30
2023-07-09T22:52:19.108Z,17.30
2023-07-09T22:54:46.944Z,17.20
2023-07-09T22:57:14.587Z,17.10
2023-07-09T22:59:42.272Z,17.10
2023-07-09T23:02:12.690Z,17.20
2023-07-09T23:04:41.554Z,17.00
2023-07-09T23:07:12.944Z,17.00
2023-07-09T23:09:40.949Z,17.00
2023-07-09T23:12:13.540Z,17.00
2023-07-09T23:14:42.543Z,16.90
2023-07-09T23:17:13.685Z,16.90
2023-07-09T23:19:41.931Z,16.90
2023-07-09T23:22:09.650Z,16.80
2023-07-09T23:24:37.348Z,16.80
2023-07-09T23:27:05.527Z,16.70
2023-07-09T23:29:33.249Z,16.70
2023-07-09T23:32:00.715Z,16.70
2023-07-09T23:34:28.289Z,16.70
2023-07-09T23:36:55.848Z,16.70
2023-07-09T23:39:26.957Z,16.70
2023-07-09T23:41:57.103Z,16.70
2023-07-09T23:44:26.471Z,16.70
2023-07-09T23:46:55.599Z,16.70
2023-07-09T23:49:29.453Z,16.80
2023-07-09T23:51:58.570Z,16.90
2023-07-09T23:54:26.331Z,16.90
2023-07-09T23:56:54.420Z,16.90
2023-07-09T23:59:30.647Z,16.90
